Petange, Luxembourg
Current Conditions -  °F | °C
As of 11:20 AM on Thursday 18 Dec 2014 (Local Time) from ELLX Reporting Station
Drizzle Drizzle  
Wind Chill: 52°   Ceiling: 600
Heat Index: 52°   Visibility: 3mi
Dew Point: 50°   Wind: 14mph
Humidity: 94%   Direction: 250°WSW
Pressure: 29.94"   Gusts: NA
Location:  49.56°N, 5.88°E
Report Text: ELLX 181020Z 25012KT 5000 -DZ SCT004 BKN006 11/10 Q1014 TEMPO 4000 BKN003
Loading
Personal Weather Stations






























Interactive Weather Map New forecast layout! Learn more

10-Day Weather Forecast

Advertisements
Track Severe Weather on mobile